Time;durP1;ratioP1;P1;durP2;ratioP2;P2;SDS_P1;SDS_P2;PMS_P1;PMS_P2;Temp;Humidity;BMP_temperature;BMP_pressure;BME280_temperature;BME280_humidity;BME280_pressure;Samples;Min_cycle;Max_cycle;Signal;HPM_P1;HPM_P2
2022/01/20 00:02:12;;;;;;;16.55;3.20;;;;;;;7.64;63.03;102356.69;4987757;28;114652;-74
2022/01/20 00:05:05;;;;;;;16.50;2.95;;;;;;;7.63;62.68;102360.19;4989208;28;113557;-74
2022/01/20 00:07:45;;;;;;;17.25;2.90;;;;;;;7.63;62.65;102354.94;4988343;28;123840;-74
2022/01/20 00:26:40;;;;;;;11.13;2.40;;;;;;;7.63;63.23;102376.03;4990482;28;114133;-74
2022/01/20 00:29:13;;;;;;;10.50;2.10;;;;;;;7.64;63.11;102378.66;4987350;28;124389;-74
2022/01/20 00:31:59;;;;;;;8.70;2.05;;;;;;;7.64;63.18;102377.78;4988720;28;124532;-75
2022/01/20 00:34:42;;;;;;;13.38;1.80;;;;;;;7.65;62.80;102379.50;4990920;28;114279;-74
2022/01/20 00:37:16;;;;;;;7.50;1.67;;;;;;;7.63;62.96;102376.91;4987784;28;114447;-74
2022/01/20 00:39:44;;;;;;;9.48;2.08;;;;;;;7.63;62.79;102383.94;4987314;28;124265;-74
2022/01/20 00:42:11;;;;;;;7.18;1.80;;;;;;;7.60;62.71;102383.06;4967679;28;122919;-74
2022/01/20 00:44:38;;;;;;;15.23;2.38;;;;;;;7.61;62.97;102378.69;4988464;28;114169;-74
2022/01/20 00:47:06;;;;;;;13.15;2.10;;;;;;;7.58;62.71;102383.97;4990098;28;115803;-74
2022/01/20 00:49:33;;;;;;;12.93;2.30;;;;;;;7.57;62.94;102382.22;4989960;28;124035;-74
2022/01/20 00:52:00;;;;;;;11.50;2.58;;;;;;;7.56;62.62;102376.06;4999238;28;123053;-74
2022/01/20 00:54:27;;;;;;;12.63;2.35;;;;;;;7.55;63.05;102374.34;4990266;28;115098;-74
2022/01/20 00:56:56;;;;;;;9.23;1.83;;;;;;;7.55;62.79;102374.34;4990356;28;114037;-74
2022/01/20 00:59:23;;;;;;;10.32;1.58;;;;;;;7.55;62.94;102378.72;4989483;28;124151;-74
2022/01/20 01:01:50;;;;;;;14.48;2.55;;;;;;;7.54;62.77;102377.84;4966586;28;123827;-74
2022/01/20 01:04:17;;;;;;;14.68;2.17;;;;;;;7.55;62.74;102369.06;4989396;28;114298;-74
2022/01/20 01:09:13;;;;;;;12.95;2.35;;;;;;;7.55;62.90;102379.63;4988937;28;123857;-74
2022/01/20 01:11:42;;;;;;;12.05;2.50;;;;;;;7.56;62.71;102391.91;4987960;28;123131;-74
2022/01/20 01:14:10;;;;;;;11.18;2.08;;;;;;;7.56;62.63;102381.34;4989598;28;114799;-74
2022/01/20 01:24:45;;;;;;;12.80;2.10;;;;;;;7.52;62.91;102406.00;4988881;28;113971;-74
2022/01/20 01:27:13;;;;;;;15.98;1.92;;;;;;;7.54;62.59;102398.06;4988634;28;113355;-75
2022/01/20 01:32:32;;;;;;;9.60;2.33;;;;;;;7.52;62.90;102394.59;4987826;28;123540;-74
2022/01/20 01:35:04;;;;;;;16.27;2.63;;;;;;;7.49;62.84;102392.81;4987301;28;114226;-74
2022/01/20 01:40:05;;;;;;;13.85;3.05;;;;;;;7.47;62.92;102386.69;4992870;28;124052;-74
2022/01/20 01:42:45;;;;;;;12.30;2.22;;;;;;;7.47;62.66;102391.97;4993361;28;123013;-74
2022/01/20 01:45:16;;;;;;;10.40;1.80;;;;;;;7.46;62.52;102400.78;4984423;28;113985;-75
2022/01/20 01:47:45;;;;;;;10.57;1.95;;;;;;;7.44;62.54;102399.91;4987172;28;113623;-74
2022/01/20 01:50:16;;;;;;;10.48;1.80;;;;;;;7.42;62.51;102393.75;4987463;28;123600;-74
2022/01/20 01:52:44;;;;;;;12.57;1.83;;;;;;;7.40;62.84;102395.50;4987880;28;123276;-74
2022/01/20 01:55:11;;;;;;;9.88;1.80;;;;;;;7.40;62.80;102390.25;4965982;28;113422;-74
2022/01/20 01:57:41;;;;;;;7.40;1.75;;;;;;;7.39;63.02;102399.06;4987803;28;112248;-74
2022/01/20 02:00:11;;;;;;;10.52;1.65;;;;;;;7.40;62.73;102395.50;4986514;28;124346;-74
2022/01/20 02:02:43;;;;;;;7.13;1.83;;;;;;;7.40;62.72;102387.63;4987724;28;124063;-74
2022/01/20 02:05:19;;;;;;;8.90;2.00;;;;;;;7.42;62.76;102388.47;5002116;28;113804;-74
2022/01/20 02:18:51;;;;;;;9.15;1.73;;;;;;;7.51;62.80;102401.59;4983020;28;113648;-74
2022/01/20 02:21:54;;;;;;;9.18;1.25;;;;;;;7.52;62.99;102406.00;4985514;28;124083;-74
2022/01/20 02:24:25;;;;;;;10.43;1.48;;;;;;;7.54;63.06;102403.34;4985807;28;122041;-74
2022/01/20 02:26:52;;;;;;;10.23;1.50;;;;;;;7.54;62.97;102393.66;4995272;28;115256;-74
2022/01/20 02:29:29;;;;;;;10.70;1.85;;;;;;;7.56;62.63;102397.16;5001376;28;114559;-74
2022/01/20 02:31:59;;;;;;;10.73;1.77;;;;;;;7.57;62.44;102398.94;4986674;28;123192;-74
2022/01/20 02:34:29;;;;;;;9.35;1.50;;;;;;;7.57;62.83;102398.94;4986639;28;124031;-74
2022/01/20 02:37:00;;;;;;;11.57;1.38;;;;;;;7.58;62.55;102399.81;4987467;28;114131;-74
2022/01/20 02:44:54;;;;;;;15.20;1.85;;;;;;;7.59;63.03;102386.63;5003793;28;123534;-74
2022/01/20 02:47:28;;;;;;;11.23;1.85;;;;;;;7.59;62.66;102381.34;4987507;28;114391;-74
2022/01/20 02:49:56;;;;;;;11.32;1.83;;;;;;;7.62;62.68;102371.66;4991604;28;113693;-73
2022/01/20 02:52:24;;;;;;;9.75;1.98;;;;;;;7.64;62.77;102380.41;4983908;28;122913;-74
2022/01/20 02:54:54;;;;;;;16.25;1.83;;;;;;;7.65;62.65;102377.78;4986917;28;122615;-74
2022/01/20 02:57:22;;;;;;;10.73;1.75;;;;;;;7.65;62.67;102379.50;4988429;28;115144;-74
2022/01/20 02:59:50;;;;;;;7.93;1.65;;;;;;;7.67;62.84;102377.78;4986396;28;113721;-74
2022/01/20 03:02:17;;;;;;;6.70;1.70;;;;;;;7.69;63.02;102386.53;4986175;28;123160;-74
2022/01/20 03:04:44;;;;;;;8.27;1.45;;;;;;;7.71;62.95;102379.50;5001693;28;123484;-74
2022/01/20 03:07:21;;;;;;;6.68;1.48;;;;;;;7.71;62.94;102384.75;4986879;28;113614;-74
2022/01/20 03:09:48;;;;;;;10.02;1.65;;;;;;;7.73;62.54;102393.53;4986537;28;113024;-74
2022/01/20 03:12:16;;;;;;;12.40;2.08;;;;;;;7.74;62.80;102387.34;4986857;28;123951;-74
2022/01/20 03:14:43;;;;;;;7.85;1.85;;;;;;;7.75;62.51;102394.41;4986747;28;123672;-74
2022/01/20 03:17:10;;;;;;;6.85;1.80;;;;;;;7.75;62.75;102391.75;4985627;28;115516;-74
2022/01/20 03:19:38;;;;;;;9.48;1.63;;;;;;;7.75;62.88;102386.47;4986937;28;114226;-74
2022/01/20 03:22:05;;;;;;;10.77;1.50;;;;;;;7.76;62.41;102390.84;4986170;28;123315;-74
2022/01/20 03:24:32;;;;;;;8.18;1.52;;;;;;;7.75;62.51;102386.47;4986530;28;122355;-74
2022/01/20 03:27:00;;;;;;;9.55;1.55;;;;;;;7.77;62.69;102385.56;4987141;28;114202;-74
2022/01/20 03:29:27;;;;;;;7.00;1.55;;;;;;;7.77;62.79;102379.44;4989521;28;113092;-74
2022/01/20 03:31:54;;;;;;;7.43;1.50;;;;;;;7.77;62.30;102387.34;4989250;28;124192;-74
2022/01/20 03:34:22;;;;;;;9.05;1.73;;;;;;;7.78;62.74;102389.09;4992920;28;123247;-74
2022/01/20 03:36:53;;;;;;;10.18;1.63;;;;;;;7.79;62.39;102382.91;4987613;28;113687;-75
2022/01/20 03:39:32;;;;;;;12.02;1.85;;;;;;;7.79;62.58;102372.38;4989752;28;113356;-74
2022/01/20 03:42:00;;;;;;;14.52;1.70;;;;;;;7.80;62.43;102368.88;4988481;28;122947;-75
2022/01/20 03:44:29;;;;;;;6.85;1.33;;;;;;;7.80;62.30;102363.59;4989584;28;123982;-76
2022/01/20 03:47:00;;;;;;;10.07;1.30;;;;;;;7.80;62.69;102375.00;4989534;28;113718;-75
2022/01/20 03:51:56;;;;;;;11.35;1.95;;;;;;;7.82;62.61;102372.34;4989221;28;123662;-76
2022/01/20 03:54:26;;;;;;;7.00;1.58;;;;;;;7.82;62.31;102372.34;4989150;28;122928;-75
2022/01/20 03:57:22;;;;;;;13.55;1.35;;;;;;;7.84;62.52;102370.56;4988500;28;113692;-75
2022/01/20 04:00:08;;;;;;;10.93;1.58;;;;;;;7.85;62.43;102377.59;4991301;28;114416;-75
2022/01/20 04:02:49;;;;;;;7.00;1.13;;;;;;;7.86;62.57;102376.72;4988569;28;123270;-75
2022/01/20 04:05:56;;;;;;;4.97;1.10;;;;;;;7.88;62.64;102374.94;4985327;28;124097;-76
2022/01/20 04:08:45;;;;;;;5.35;0.98;;;;;;;7.91;62.91;102388.09;4988514;28;114790;-73
2022/01/20 04:11:23;;;;;;;8.20;1.45;;;;;;;7.93;62.65;102391.59;4989229;28;114121;-73
2022/01/20 04:13:50;;;;;;;6.55;1.25;;;;;;;7.94;62.37;102388.06;4988619;28;123305;-74
2022/01/20 04:16:39;;;;;;;5.97;1.10;;;;;;;7.95;62.59;102400.38;4988811;28;123413;-74
2022/01/20 04:19:09;;;;;;;7.28;0.80;;;;;;;7.97;62.50;102388.03;5005097;28;113426;-74
2022/01/20 04:21:39;;;;;;;3.97;1.00;;;;;;;7.99;62.46;102391.53;4989026;28;113882;-73
2022/01/20 04:24:08;;;;;;;5.90;1.20;;;;;;;8.02;62.24;102389.75;4988411;28;124401;-74
2022/01/20 04:26:36;;;;;;;5.28;1.25;;;;;;;8.01;62.49;102398.56;4972928;28;123719;-74
2022/01/20 04:29:06;;;;;;;7.43;1.30;;;;;;;8.02;62.41;102426.69;4978366;28;113542;-74
2022/01/20 04:31:35;;;;;;;6.97;0.90;;;;;;;8.01;62.46;102417.06;4989123;28;112564;-73
2022/01/20 04:34:04;;;;;;;5.63;1.52;;;;;;;7.98;62.43;102431.97;4988039;28;123092;-73
2022/01/20 04:36:36;;;;;;;5.93;1.02;;;;;;;7.98;62.09;102441.69;4985839;28;123416;-73
2022/01/20 04:39:07;;;;;;;8.25;1.30;;;;;;;7.97;62.22;102446.09;4988427;28;113787;-73
2022/01/20 04:41:35;;;;;;;6.25;1.05;;;;;;;7.95;62.10;102437.31;4989313;28;114367;-74
2022/01/20 04:44:10;;;;;;;7.65;1.25;;;;;;;7.93;62.18;102439.09;4988711;28;123382;-74
2022/01/20 04:57:18;;;;;;;8.60;1.10;;;;;;;7.87;62.49;102439.13;4993055;28;123037;-74
2022/01/20 04:59:48;;;;;;;6.30;1.00;;;;;;;7.82;62.58;102433.03;4985925;28;115977;-74
2022/01/20 05:02:18;;;;;;;5.85;1.10;;;;;;;7.79;62.27;102440.94;4981033;28;114111;-74
2022/01/20 05:04:57;;;;;;;7.70;1.30;;;;;;;7.76;62.59;102446.25;4978608;28;124015;-74
2022/01/20 05:07:36;;;;;;;4.72;1.10;;;;;;;7.74;62.32;102448.91;4988461;28;124484;-74
2022/01/20 05:10:08;;;;;;;4.97;1.00;;;;;;;7.73;62.37;102446.28;4988300;28;113270;-74
2022/01/20 05:13:02;;;;;;;8.70;1.20;;;;;;;7.72;62.67;102449.78;4986761;28;112972;-74
2022/01/20 05:15:23;;;;;;;7.57;1.10;;;;;;;7.72;62.62;102468.25;4989204;28;123085;-74
2022/01/20 05:17:53;;;;;;;7.30;1.08;;;;;;;7.72;62.70;102466.50;4987993;28;122919;-74
2022/01/20 05:20:21;;;;;;;7.15;1.02;;;;;;;7.72;62.38;102481.44;4992831;28;113668;-74
2022/01/20 05:22:48;;;;;;;6.60;1.30;;;;;;;7.73;62.74;102477.94;4989832;28;114036;-74
2022/01/20 05:25:19;;;;;;;6.50;1.13;;;;;;;7.72;62.70;102482.34;4987613;28;123465;-74
2022/01/20 05:27:46;;;;;;;4.15;1.10;;;;;;;7.73;62.76;102483.19;4988432;28;123439;-74
2022/01/20 05:30:14;;;;;;;4.53;1.02;;;;;;;7.74;62.60;102492.84;4985740;28;113551;-74
2022/01/20 05:33:00;;;;;;;7.75;1.75;;;;;;;7.72;63.01;102491.97;4988213;28;114759;-74
2022/01/20 05:35:29;;;;;;;5.20;1.00;;;;;;;7.73;62.74;102477.94;4993367;28;123753;-74
2022/01/20 05:37:58;;;;;;;7.93;1.33;;;;;;;7.73;62.64;102497.25;4986276;28;123120;-76
2022/01/20 05:40:27;;;;;;;4.25;0.82;;;;;;;7.73;62.68;102493.75;4988053;28;114027;-76
2022/01/20 05:42:54;;;;;;;9.70;1.23;;;;;;;7.71;62.42;102500.81;4980053;28;113083;-74
2022/01/20 05:45:22;;;;;;;5.70;1.00;;;;;;;7.72;62.69;102505.16;4989591;28;124599;-74
2022/01/20 05:48:07;;;;;;;7.10;1.40;;;;;;;7.71;62.68;102508.72;4972511;28;124248;-73
2022/01/20 05:51:06;;;;;;;8.32;1.80;;;;;;;7.69;62.58;102513.13;4987593;28;115072;-74
2022/01/20 05:53:34;;;;;;;7.78;1.30;;;;;;;7.67;62.59;102520.16;4988203;28;114196;-74
2022/01/20 05:56:01;;;;;;;8.75;1.38;;;;;;;7.67;62.63;102530.72;4993407;28;123751;-74
2022/01/20 05:58:33;;;;;;;8.13;1.42;;;;;;;7.66;62.69;102534.22;4987464;28;123575;-74
2022/01/20 06:01:01;;;;;;;10.75;1.50;;;;;;;7.66;62.49;102536.84;4987577;28;113924;-74
2022/01/20 06:03:37;;;;;;;8.07;1.23;;;;;;;7.66;62.58;102534.22;4988113;28;113931;-74
2022/01/20 06:06:11;;;;;;;7.90;1.08;;;;;;;7.66;62.37;102528.94;4970026;28;124052;-74
2022/01/20 06:08:44;;;;;;;12.85;1.70;;;;;;;7.67;62.45;102533.34;4987855;28;123476;-74
2022/01/20 06:11:14;;;;;;;9.15;1.40;;;;;;;7.67;62.46;102541.25;4985134;28;113589;-74
2022/01/20 06:13:41;;;;;;;9.95;1.40;;;;;;;7.67;62.36;102536.00;4988645;28;114204;-76
2022/01/20 06:16:09;;;;;;;5.88;1.42;;;;;;;7.66;62.29;102539.50;4986832;28;123327;-73
2022/01/20 06:18:37;;;;;;;10.77;1.55;;;;;;;7.64;62.47;102551.81;4989273;28;124350;-75
2022/01/20 06:21:04;;;;;;;6.28;1.15;;;;;;;7.65;62.39;102558.81;4971953;28;112639;-74
2022/01/20 06:23:31;;;;;;;10.93;1.20;;;;;;;7.65;62.49;102558.81;4989397;28;113837;-75
2022/01/20 06:26:04;;;;;;;6.38;1.35;;;;;;;7.66;62.32;102573.78;4987400;28;123489;-75
2022/01/20 06:28:35;;;;;;;8.55;1.48;;;;;;;7.66;62.51;102571.16;4987392;28;123522;-75
2022/01/20 06:31:04;;;;;;;9.77;1.48;;;;;;;7.65;62.24;102579.94;4994200;28;114007;-75
2022/01/20 06:33:32;;;;;;;12.70;1.77;;;;;;;7.64;62.30;102576.41;4987853;28;113304;-75
2022/01/20 06:35:59;;;;;;;8.10;1.90;;;;;;;7.66;62.36;102576.41;4988508;28;123928;-74
2022/01/20 06:38:28;;;;;;;14.63;1.98;;;;;;;7.65;62.03;102585.19;4985140;28;122563;-74
2022/01/20 06:40:58;;;;;;;8.90;1.88;;;;;;;7.64;62.47;102588.75;4986696;28;115093;-74
2022/01/20 06:43:28;;;;;;;9.32;1.55;;;;;;;7.64;62.05;102594.00;4988623;28;114066;-74
2022/01/20 06:45:56;;;;;;;11.02;1.85;;;;;;;7.65;62.23;102586.09;4967874;28;123269;-74
2022/01/20 06:48:43;;;;;;;7.63;1.25;;;;;;;7.66;62.29;102592.25;4988607;28;123970;-74
2022/01/20 06:51:36;;;;;;;9.20;1.52;;;;;;;7.65;62.14;102586.09;4985483;28;113222;-74
2022/01/20 06:54:04;;;;;;;12.15;1.65;;;;;;;7.66;61.99;102602.78;4986916;28;113047;-74
2022/01/20 06:56:32;;;;;;;8.02;1.45;;;;;;;7.66;61.93;102602.78;4986663;28;123720;-74
2022/01/20 06:59:14;;;;;;;10.65;2.20;;;;;;;7.66;61.91;102602.78;4998417;28;122992;-74
2022/01/20 07:01:42;;;;;;;10.73;1.90;;;;;;;7.67;61.84;102609.84;4982794;28;113706;-74
2022/01/20 07:04:16;;;;;;;9.77;1.58;;;;;;;7.67;61.84;102615.09;4975738;28;113160;-74
2022/01/20 07:06:44;;;;;;;11.45;1.88;;;;;;;7.66;61.67;102618.59;4990516;28;123439;-74
2022/01/20 07:09:30;;;;;;;;;;;;;;;7.63;61.67;102623.88;4992541;28;125169;-74
2022/01/20 07:12:03;;;;;;;10.32;1.77;;;;;;;7.62;61.63;102622.16;5007738;28;113438;-74
2022/01/20 07:14:31;;;;;;;13.43;2.38;;;;;;;7.58;61.56;102627.44;4991950;28;114728;-74
2022/01/20 07:17:01;;;;;;;11.02;1.70;;;;;;;7.57;61.79;102633.59;4990766;28;123728;-74
2022/01/20 07:19:29;;;;;;;8.40;2.13;;;;;;;7.56;61.27;102629.19;4990389;28;123531;-74
2022/01/20 07:21:56;;;;;;;9.27;2.28;;;;;;;7.55;61.23;102643.28;4989753;28;113847;-75
2022/01/20 07:24:27;;;;;;;9.57;1.70;;;;;;;7.55;61.18;102643.28;4988815;28;113667;-74
2022/01/20 07:26:58;;;;;;;10.57;2.05;;;;;;;7.55;61.18;102643.28;5001522;28;123220;-75
2022/01/20 07:29:27;;;;;;;9.60;1.70;;;;;;;7.55;61.17;102648.56;4990184;28;123178;-75
2022/01/20 07:31:54;;;;;;;10.27;1.83;;;;;;;7.56;61.12;102660.84;4991127;28;114730;-74
2022/01/20 07:34:22;;;;;;;12.98;1.73;;;;;;;7.54;60.91;102659.97;4974238;28;115153;-74
2022/01/20 07:36:49;;;;;;;9.73;1.55;;;;;;;7.55;60.87;102664.38;4990552;28;123165;-74
2022/01/20 07:39:16;;;;;;;14.43;2.00;;;;;;;7.54;60.97;102667.00;4991798;28;124120;-74
2022/01/20 07:41:43;;;;;;;6.80;1.52;;;;;;;7.52;60.76;102659.09;4989833;28;114156;-74
2022/01/20 07:44:35;;;;;;;8.40;1.40;;;;;;;7.51;60.63;102662.59;4991343;28;114388;-74
2022/01/20 07:47:20;;;;;;;7.40;1.60;;;;;;;7.50;60.64;102660.84;4989505;28;123529;-74
2022/01/20 07:49:47;;;;;;;9.90;1.67;;;;;;;7.49;60.41;102661.72;4998012;28;123326;-74
2022/01/20 07:52:14;;;;;;;9.38;1.60;;;;;;;7.49;60.66;102664.38;4973038;28;113445;-74
2022/01/20 07:54:42;;;;;;;8.45;1.60;;;;;;;7.49;60.28;102669.63;4991959;28;113251;-74
2022/01/20 07:57:10;;;;;;;10.52;1.83;;;;;;;7.51;60.62;102673.13;4990904;28;125102;-74
2022/01/20 07:59:37;;;;;;;6.93;1.20;;;;;;;7.51;59.91;102673.13;4990706;28;124172;-74
2022/01/20 08:02:04;;;;;;;7.85;1.40;;;;;;;7.52;60.11;102685.47;5001290;28;113424;-74
2022/01/20 08:04:33;;;;;;;10.05;1.92;;;;;;;7.54;59.89;102694.25;4990024;28;112494;-74
2022/01/20 08:07:07;;;;;;;5.07;1.38;;;;;;;7.54;60.01;102694.25;4974829;28;123507;-74
2022/01/20 08:09:34;;;;;;;7.10;1.95;;;;;;;7.56;60.22;102697.75;4991017;28;123289;-74
2022/01/20 08:12:24;;;;;;;11.50;1.63;;;;;;;7.58;59.83;102693.34;4990305;28;114931;-74
2022/01/20 08:15:12;;;;;;;12.18;2.10;;;;;;;7.59;59.84;102703.03;4988368;28;113980;-74
2022/01/20 08:18:06;;;;;;;9.07;1.30;;;;;;;7.60;59.72;102710.03;4988214;28;124344;-74
2022/01/20 08:20:37;;;;;;;12.40;2.20;;;;;;;7.60;59.83;102714.44;4989741;28;124543;-74
2022/01/20 08:23:06;;;;;;;7.78;1.45;;;;;;;7.60;59.58;102715.31;4989496;28;114788;-74
2022/01/20 08:25:34;;;;;;;10.10;1.42;;;;;;;7.59;59.63;102708.31;4989768;28;114884;-74
2022/01/20 08:28:02;;;;;;;14.88;1.88;;;;;;;7.62;59.75;102717.06;4991193;28;124828;-75
2022/01/20 08:30:34;;;;;;;11.80;1.50;;;;;;;7.62;59.58;102717.94;4989843;28;123504;-74
2022/01/20 08:33:01;;;;;;;9.35;1.60;;;;;;;7.63;59.42;102714.44;4990039;28;114158;-74
2022/01/20 08:35:43;;;;;;;6.40;1.30;;;;;;;7.63;59.72;102718.81;4989711;28;113535;-74
2022/01/20 08:38:29;;;;;;;13.38;1.83;;;;;;;7.63;59.56;102718.81;4991950;28;125354;-74
2022/01/20 08:40:57;;;;;;;7.10;1.20;;;;;;;7.65;59.27;102722.31;5007605;28;123328;-74
2022/01/20 08:43:24;;;;;;;5.97;1.50;;;;;;;7.65;59.07;102727.59;5000962;28;113981;-75
2022/01/20 08:45:51;;;;;;;9.43;1.55;;;;;;;7.66;59.52;102729.38;5013816;28;113126;-75
2022/01/20 08:48:21;;;;;;;7.63;1.50;;;;;;;7.67;59.42;102732.00;5007535;28;124139;-75
2022/01/20 08:51:07;;;;;;;7.97;1.48;;;;;;;7.68;59.45;102727.59;5007155;28;124132;-75
2022/01/20 08:53:54;;;;;;;;;;;;;;;7.68;59.27;102735.50;4998400;28;114717;-74
2022/01/20 08:56:24;;;;;;;8.98;1.48;;;;;;;7.68;59.31;102732.88;5030524;28;113531;-75
2022/01/20 08:58:52;;;;;;;5.07;0.90;;;;;;;7.68;59.39;102740.78;4997723;28;123669;-75
2022/01/20 09:01:19;;;;;;;8.50;1.40;;;;;;;7.66;59.41;102739.91;4997351;28;122297;-75
2022/01/20 09:03:47;;;;;;;8.93;1.40;;;;;;;7.67;58.85;102741.69;5000866;28;113443;-74
2022/01/20 09:06:16;;;;;;;7.35;1.30;;;;;;;7.67;58.93;102746.97;4997320;28;112593;-75
2022/01/20 09:08:50;;;;;;;6.40;1.08;;;;;;;7.67;58.81;102741.69;4979056;28;123499;-75
2022/01/20 09:11:19;;;;;;;7.82;1.27;;;;;;;7.67;59.14;102752.25;4977036;28;124134;-75
2022/01/20 09:16:37;;;;;;;7.00;1.30;;;;;;;7.70;58.78;102752.22;5002268;28;113592;-75
2022/01/20 09:19:16;;;;;;;9.15;1.40;;;;;;;7.71;58.53;102756.63;5017029;28;124126;-75
2022/01/20 09:22:05;;;;;;;8.93;1.50;;;;;;;7.75;58.95;102746.03;4991233;28;124192;-75
2022/01/20 09:24:33;;;;;;;8.13;1.20;;;;;;;7.77;58.74;102743.41;4988179;28;113548;-74
2022/01/20 09:27:02;;;;;;;4.28;1.15;;;;;;;7.81;58.60;102763.63;4987734;28;112532;-74
2022/01/20 09:29:29;;;;;;;11.45;1.70;;;;;;;7.84;58.40;102755.69;4990029;28;123767;-74
2022/01/20 09:31:59;;;;;;;10.23;1.80;;;;;;;7.86;58.46;102753.94;4984502;28;123008;-74
2022/01/20 09:34:29;;;;;;;8.52;1.35;;;;;;;7.89;58.56;102759.22;4988114;28;113663;-74
2022/01/20 09:36:56;;;;;;;7.60;1.45;;;;;;;7.93;58.29;102760.94;4992757;28;113470;-74
2022/01/20 09:39:26;;;;;;;7.32;1.63;;;;;;;7.97;58.43;102752.13;4986611;28;124411;-74
2022/01/20 09:42:10;;;;;;;10.00;1.38;;;;;;;7.99;58.01;102750.38;4986374;28;123212;-74
2022/01/20 09:44:44;;;;;;;9.32;1.42;;;;;;;8.05;58.36;102751.25;4988250;28;113503;-74
2022/01/20 09:47:17;;;;;;;8.95;1.50;;;;;;;8.09;58.03;102755.63;4988889;28;114396;-74
2022/01/20 09:49:56;;;;;;;14.65;2.05;;;;;;;8.14;58.28;102759.13;4994067;28;124329;-74
2022/01/20 09:52:30;;;;;;;7.72;1.67;;;;;;;8.17;58.24;102774.94;4974878;28;123558;-74
2022/01/20 09:55:14;;;;;;;9.15;1.27;;;;;;;8.18;57.86;102788.13;4988636;28;113865;-74
2022/01/20 09:57:42;;;;;;;10.40;1.30;;;;;;;8.19;58.20;102796.91;4975371;28;113484;-74
2022/01/20 10:00:13;;;;;;;9.48;1.75;;;;;;;8.21;58.09;102802.19;4989337;28;123613;-74
2022/01/20 10:02:59;;;;;;;6.95;1.33;;;;;;;8.20;58.07;102806.59;4988268;28;123575;-74
2022/01/20 10:05:36;;;;;;;9.65;1.50;;;;;;;8.19;57.96;102804.84;4986226;28;114465;-74
2022/01/20 10:08:23;;;;;;;7.75;1.35;;;;;;;8.17;57.67;102817.16;5005355;28;114459;-74
2022/01/20 10:11:13;;;;;;;9.23;1.50;;;;;;;8.15;57.77;102824.22;4984893;28;123831;-74
2022/01/20 10:14:02;;;;;;;7.45;1.52;;;;;;;8.14;57.76;102817.19;5003236;28;124515;-74
2022/01/20 10:16:49;;;;;;;11.35;2.10;;;;;;;8.13;58.00;102815.41;4986779;28;114093;-74
2022/01/20 10:19:26;;;;;;;5.15;1.20;;;;;;;8.11;57.69;102822.47;4986993;28;113040;-75
2022/01/20 10:21:54;;;;;;;9.85;2.45;;;;;;;8.10;57.78;102823.34;4984661;28;122536;-74
2022/01/20 10:24:26;;;;;;;9.32;3.08;;;;;;;8.11;57.73;102827.75;4985951;28;124781;-74
2022/01/20 10:27:12;;;;;;;6.03;1.77;;;;;;;8.15;57.97;102832.13;4990068;28;115121;-74
2022/01/20 10:30:00;;;;;;;12.90;1.70;;;;;;;8.21;57.92;102834.75;4988253;28;113778;-75
2022/01/20 10:32:43;;;;;;;9.35;1.65;;;;;;;8.27;58.16;102840.03;4987442;28;122714;-75
2022/01/20 10:35:13;;;;;;;6.22;1.42;;;;;;;8.34;57.99;102841.75;4986102;28;124047;-75
2022/01/20 10:37:52;;;;;;;7.22;1.50;;;;;;;8.38;57.53;102854.06;4991832;28;113146;-75
2022/01/20 10:40:22;;;;;;;10.95;1.55;;;;;;;8.43;57.79;102855.84;4988743;28;113352;-76
2022/01/20 10:42:55;;;;;;;10.75;1.95;;;;;;;8.45;57.87;102856.72;4986267;28;122126;-75
2022/01/20 10:45:28;;;;;;;5.05;1.42;;;;;;;8.48;57.43;102864.63;4986721;28;123295;-75
2022/01/20 10:47:59;;;;;;;6.00;1.80;;;;;;;8.49;57.26;102846.13;4972233;28;113684;-75
2022/01/20 10:50:36;;;;;;;11.75;1.85;;;;;;;8.51;57.39;102854.03;4987054;28;113439;-76
2022/01/20 10:53:16;;;;;;;12.45;2.13;;;;;;;8.54;57.06;102864.59;4983652;28;123680;-75
2022/01/20 10:55:43;;;;;;;7.30;1.88;;;;;;;8.57;57.47;102859.31;4973830;28;124740;-76
2022/01/20 10:58:20;;;;;;;6.85;1.52;;;;;;;8.59;57.31;102852.25;4986013;28;117491;-75
2022/01/20 11:00:53;;;;;;;9.40;1.75;;;;;;;8.62;57.34;102868.06;4971126;28;114232;-75
2022/01/20 11:03:22;;;;;;;6.93;1.50;;;;;;;8.62;56.85;102862.78;4998737;28;124048;-76
2022/01/20 11:05:52;;;;;;;6.93;1.58;;;;;;;8.61;56.85;102855.78;4999748;28;123698;-75
2022/01/20 11:08:29;;;;;;;8.52;1.58;;;;;;;8.62;56.77;102852.22;4987783;28;114427;-77
2022/01/20 11:11:01;;;;;;;7.05;1.38;;;;;;;8.66;56.90;102853.09;5004255;28;113094;-77
2022/01/20 11:13:47;;;;;;;7.13;1.40;;;;;;;8.70;56.80;102855.72;4987346;28;123638;-77
2022/01/20 11:16:15;;;;;;;8.02;1.40;;;;;;;8.75;56.63;102843.34;4986334;28;123979;-77
2022/01/20 11:18:43;;;;;;;8.77;1.60;;;;;;;8.77;56.51;102836.28;4987911;28;112626;-77
2022/01/20 11:21:22;;;;;;;9.10;1.83;;;;;;;8.81;56.44;102841.56;4971237;28;113677;-77
2022/01/20 11:23:49;;;;;;;6.95;1.23;;;;;;;8.84;56.17;102846.84;4985072;28;124380;-77
2022/01/20 11:26:29;;;;;;;6.45;1.38;;;;;;;8.81;56.13;102836.28;4969066;28;123519;-76
2022/01/20 11:29:21;;;;;;;9.32;1.48;;;;;;;8.81;56.12;102836.28;4979836;28;113463;-77
2022/01/20 11:32:20;;;;;;;4.75;1.20;;;;;;;8.77;55.99;102831.00;4985491;28;113397;-76
2022/01/20 11:35:08;;;;;;;7.37;1.67;;;;;;;8.75;55.96;102816.94;4986955;28;122550;-77
2022/01/20 11:37:41;;;;;;;5.28;1.48;;;;;;;8.75;56.08;102824.00;4986715;28;124173;-78
2022/01/20 11:40:18;;;;;;;8.60;1.50;;;;;;;8.76;56.12;102824.00;4986502;28;115654;-76
2022/01/20 11:43:02;;;;;;;8.13;1.30;;;;;;;8.79;56.21;102816.94;4987271;28;113904;-77
2022/01/20 11:45:32;;;;;;;8.13;1.23;;;;;;;8.81;56.08;102815.16;4988371;28;123732;-77
2022/01/20 11:48:23;;;;;;;5.50;1.10;;;;;;;8.82;55.96;102824.84;4989391;28;123945;-77
2022/01/20 11:51:05;;;;;;;6.10;1.20;;;;;;;8.86;56.16;102821.28;4985525;28;115115;-77
2022/01/20 11:53:40;;;;;;;6.88;1.65;;;;;;;8.92;56.25;102823.91;4990142;28;115556;-77
2022/01/20 11:56:09;;;;;;;6.88;1.38;;;;;;;8.96;55.60;102820.34;4984571;28;124415;-77
2022/01/20 11:58:36;;;;;;;5.93;1.38;;;;;;;8.97;55.45;102832.69;4990207;28;123244;-77
2022/01/20 12:01:06;;;;;;;4.47;1.38;;;;;;;8.93;55.24;102821.25;4990194;28;113693;-77
2022/01/20 12:03:36;;;;;;;7.07;1.10;;;;;;;8.92;55.18;102823.91;4989879;28;115671;-77
2022/01/20 12:06:12;;;;;;;4.93;1.20;;;;;;;8.93;55.64;102830.94;4986353;28;123475;-77
2022/01/20 12:08:57;;;;;;;8.27;1.45;;;;;;;8.96;55.49;102825.63;4987734;28;123855;-77
2022/01/20 12:11:45;;;;;;;8.50;1.52;;;;;;;8.96;55.28;102820.34;4989402;28;113093;-77
2022/01/20 12:14:24;;;;;;;6.13;1.15;;;;;;;8.99;55.42;102815.03;4989320;28;113342;-77
2022/01/20 12:17:01;;;;;;;6.90;1.30;;;;;;;9.01;55.12;102813.25;4986996;28;124591;-77
2022/01/20 12:19:28;;;;;;;4.97;0.93;;;;;;;9.06;55.03;102806.19;4969561;28;124519;-77
2022/01/20 12:21:55;;;;;;;5.10;1.00;;;;;;;9.09;54.97;102816.72;4997274;28;113292;-77
2022/01/20 12:24:22;;;;;;;6.55;1.20;;;;;;;9.13;55.23;102807.88;4989562;28;114239;-77
2022/01/20 12:26:49;;;;;;;5.35;1.00;;;;;;;9.21;54.95;102820.16;4990350;28;124788;-77
2022/01/20 12:29:16;;;;;;;7.00;0.90;;;;;;;9.25;54.83;102821.88;4991284;28;123498;-77
2022/01/20 12:31:56;;;;;;;6.90;1.30;;;;;;;9.24;54.62;102820.16;4990223;28;114614;-78
2022/01/20 12:34:23;;;;;;;8.40;1.13;;;;;;;9.23;54.24;102823.66;4985772;28;112477;-76
2022/01/20 12:36:56;;;;;;;5.75;1.20;;;;;;;9.20;54.38;102823.72;4998236;28;123926;-77
2022/01/20 12:39:34;;;;;;;6.05;1.15;;;;;;;9.16;54.51;102823.72;4988794;28;122905;-76
2022/01/20 12:42:05;;;;;;;6.00;1.00;;;;;;;9.13;53.97;102813.16;4988394;28;114674;-76
2022/01/20 12:44:48;;;;;;;5.20;1.02;;;;;;;9.11;53.92;102808.78;4988578;28;114777;-76
2022/01/20 12:47:17;;;;;;;10.85;1.60;;;;;;;9.09;54.31;102805.28;4990499;28;123846;-77
2022/01/20 12:49:54;;;;;;;5.32;1.40;;;;;;;9.07;53.98;102810.56;4991391;28;124483;-76
2022/01/20 12:52:21;;;;;;;5.90;1.35;;;;;;;9.08;54.00;102812.34;4989454;28;114047;-76
2022/01/20 12:54:48;;;;;;;6.70;1.00;;;;;;;9.09;54.16;102798.22;4974027;28;112885;-76
2022/01/20 12:57:17;;;;;;;3.78;0.80;;;;;;;9.13;54.28;102792.00;4990624;28;124112;-76